createdAt,value
2023-03-25T00:01:19.658Z,14.88
2023-03-25T00:03:50.446Z,18.95
2023-03-25T00:06:17.981Z,16.42
2023-03-25T00:08:45.480Z,16.35
2023-03-25T00:11:12.826Z,20.25
2023-03-25T00:13:40.803Z,14.63
2023-03-25T00:16:10.298Z,14.23
2023-03-25T00:18:37.847Z,19.98
2023-03-25T00:21:10.761Z,17.02
2023-03-25T00:23:39.448Z,21.20
2023-03-25T00:26:07.631Z,21.52
2023-03-25T00:28:37.190Z,18.40
2023-03-25T00:31:07.790Z,16.05
2023-03-25T00:33:35.617Z,14.27
2023-03-25T00:36:04.648Z,18.77
2023-03-25T00:38:35.184Z,17.43
2023-03-25T00:41:25.463Z,16.27
2023-03-25T00:44:00.062Z,19.70
2023-03-25T00:46:29.800Z,24.17
2023-03-25T00:48:58.538Z,15.77
2023-03-25T00:51:26.650Z,22.05
2023-03-25T00:53:56.909Z,14.05
2023-03-25T00:56:24.592Z,22.02
2023-03-25T00:58:52.376Z,22.95
2023-03-25T01:01:29.216Z,20.05
2023-03-25T01:03:58.893Z,19.88
2023-03-25T01:06:28.929Z,22.13
2023-03-25T01:08:57.565Z,23.00
2023-03-25T01:11:27.972Z,21.33
2023-03-25T01:13:57.156Z,25.33
2023-03-25T01:16:24.488Z,20.05
2023-03-25T01:18:51.940Z,18.63
2023-03-25T01:21:19.249Z,22.33
2023-03-25T01:23:46.516Z,20.85
2023-03-25T01:26:13.996Z,19.63
2023-03-25T01:28:42.856Z,31.75
2023-03-25T01:31:12.810Z,18.65
2023-03-25T01:33:40.627Z,20.48
2023-03-25T01:36:13.036Z,24.92
2023-03-25T01:38:41.014Z,20.27
2023-03-25T01:41:09.726Z,18.25
2023-03-25T01:43:37.390Z,22.67
2023-03-25T01:46:04.986Z,23.88
2023-03-25T01:48:37.909Z,29.45
2023-03-25T01:51:17.582Z,26.88
2023-03-25T01:53:45.008Z,19.38
2023-03-25T01:56:16.488Z,30.52
2023-03-25T01:58:43.992Z,23.30
2023-03-25T02:01:16.682Z,26.63
2023-03-25T02:03:51.213Z,19.38
2023-03-25T02:06:25.156Z,22.42
2023-03-25T02:08:53.571Z,23.95
2023-03-25T02:11:20.860Z,23.17
2023-03-25T02:13:48.136Z,23.60
2023-03-25T02:16:22.655Z,22.50
2023-03-25T02:19:18.492Z,21.08
2023-03-25T02:21:50.187Z,23.55
2023-03-25T02:24:43.298Z,17.90
2023-03-25T02:27:45.905Z,33.10
2023-03-25T02:30:34.689Z,21.88
2023-03-25T02:33:28.796Z,19.50
2023-03-25T02:36:30.069Z,24.15
2023-03-25T02:39:01.923Z,20.52
2023-03-25T02:41:39.965Z,21.77
2023-03-25T02:44:21.848Z,19.63
2023-03-25T02:46:53.384Z,25.02
2023-03-25T02:49:28.489Z,23.45
2023-03-25T02:51:59.634Z,23.02
2023-03-25T02:54:27.812Z,19.55
2023-03-25T02:56:57.587Z,34.30
2023-03-25T02:59:33.149Z,27.15
2023-03-25T03:02:03.757Z,21.33
2023-03-25T03:04:31.324Z,22.13
2023-03-25T03:06:58.661Z,14.20
2023-03-25T03:09:40.616Z,23.73
2023-03-25T03:12:36.603Z,23.80
2023-03-25T03:15:09.275Z,17.98
2023-03-25T03:18:12.991Z,29.85
2023-03-25T03:21:06.914Z,23.40
2023-03-25T03:23:49.300Z,22.58
2023-03-25T03:26:27.539Z,25.30
2023-03-25T03:29:05.814Z,24.98
2023-03-25T03:32:05.544Z,24.60
2023-03-25T03:34:44.836Z,26.42
2023-03-25T03:37:15.450Z,17.83
2023-03-25T03:39:44.470Z,27.58
2023-03-25T03:42:27.116Z,24.40
2023-03-25T03:44:58.842Z,23.80
2023-03-25T03:47:32.362Z,20.60
2023-03-25T03:50:04.869Z,21.02
2023-03-25T03:52:38.717Z,25.65
2023-03-25T03:55:14.077Z,19.40
2023-03-25T03:58:09.741Z,22.42
2023-03-25T04:00:43.087Z,18.55
2023-03-25T04:03:24.570Z,14.45
2023-03-25T04:05:56.453Z,22.00
2023-03-25T04:08:31.920Z,22.55
2023-03-25T04:11:03.873Z,15.50
2023-03-25T04:13:35.409Z,18.77
2023-03-25T04:16:03.174Z,20.48
2023-03-25T04:18:33.731Z,13.55
2023-03-25T04:21:01.301Z,16.25
2023-03-25T04:23:32.285Z,11.85
2023-03-25T04:26:03.018Z,15.45
2023-03-25T04:28:31.840Z,19.33
2023-03-25T04:31:00.749Z,15.18
2023-03-25T04:33:32.075Z,15.32
2023-03-25T04:36:02.097Z,16.23
2023-03-25T04:40:58.288Z,11.82
2023-03-25T04:43:25.684Z,14.32
2023-03-25T04:45:55.783Z,12.55
2023-03-25T04:50:52.899Z,12.35
2023-03-25T04:53:20.403Z,17.65
2023-03-25T04:55:50.614Z,14.32
2023-03-25T04:58:18.269Z,13.02
2023-03-25T05:00:50.170Z,13.93
2023-03-25T05:03:23.990Z,14.48
2023-03-25T05:05:53.525Z,16.05
2023-03-25T05:08:23.475Z,16.58
2023-03-25T05:10:50.717Z,21.25
2023-03-25T05:13:18.432Z,14.73
2023-03-25T05:15:45.638Z,14.25
2023-03-25T05:18:14.873Z,12.52
2023-03-25T05:20:45.066Z,16.00
2023-03-25T05:25:47.450Z,17.05
2023-03-25T05:28:17.882Z,16.33
2023-03-25T05:30:46.557Z,14.77
2023-03-25T05:33:16.305Z,13.57
2023-03-25T05:35:44.601Z,11.48
2023-03-25T05:38:13.552Z,17.08
2023-03-25T05:40:41.316Z,14.48
2023-03-25T05:43:08.866Z,13.70
2023-03-25T05:45:36.547Z,14.07
2023-03-25T05:48:05.163Z,11.32
2023-03-25T05:50:32.586Z,11.93
2023-03-25T05:53:00.187Z,19.30
2023-03-25T05:55:28.026Z,13.57
2023-03-25T05:57:56.987Z,17.17
2023-03-25T06:00:24.655Z,13.07
2023-03-25T06:02:52.316Z,16.08
2023-03-25T06:05:23.881Z,21.00
2023-03-25T06:07:52.182Z,15.20
2023-03-25T06:10:19.707Z,15.48
2023-03-25T06:12:47.789Z,16.13
2023-03-25T06:15:21.460Z,15.80
2023-03-25T06:17:48.744Z,10.63
2023-03-25T06:20:16.696Z,12.93
2023-03-25T06:22:45.578Z,16.40
2023-03-25T06:25:17.641Z,12.85
2023-03-25T06:27:46.240Z,11.15
2023-03-25T06:30:15.955Z,14.57
2023-03-25T06:32:43.514Z,16.83
2023-03-25T06:35:11.831Z,13.98
2023-03-25T06:37:39.415Z,18.05
2023-03-25T06:40:13.832Z,16.35
2023-03-25T06:42:42.190Z,15.75
2023-03-25T06:45:33.477Z,15.52
2023-03-25T06:48:06.193Z,9.38
2023-03-25T06:50:33.587Z,17.17
2023-03-25T06:53:00.901Z,14.05
2023-03-25T06:55:28.167Z,17.42
2023-03-25T06:57:56.476Z,17.10
2023-03-25T07:00:26.797Z,17.08
2023-03-25T07:02:55.101Z,12.05
2023-03-25T07:05:22.621Z,15.23
2023-03-25T07:07:50.062Z,16.63
2023-03-25T07:10:17.469Z,17.33
2023-03-25T07:12:44.793Z,16.85
2023-03-25T07:15:12.074Z,14.82
2023-03-25T07:17:43.098Z,11.67
2023-03-25T07:20:12.973Z,23.93
2023-03-25T07:22:43.362Z,11.85
2023-03-25T07:25:10.700Z,17.67
2023-03-25T07:27:38.034Z,18.05
2023-03-25T07:30:10.156Z,18.25
2023-03-25T07:32:37.828Z,17.05
2023-03-25T07:35:06.422Z,17.23
2023-03-25T07:37:33.653Z,19.02
2023-03-25T07:40:01.215Z,13.48
2023-03-25T07:42:28.563Z,13.07
2023-03-25T07:45:14.310Z,17.10
2023-03-25T07:47:43.576Z,15.33
2023-03-25T07:50:11.198Z,20.90
2023-03-25T07:52:38.566Z,22.65
2023-03-25T07:55:06.478Z,20.30
2023-03-25T07:57:33.918Z,22.02
2023-03-25T08:00:01.284Z,13.57
2023-03-25T08:02:28.780Z,18.33
2023-03-25T08:04:57.514Z,17.50
2023-03-25T08:07:25.983Z,14.45
2023-03-25T08:09:56.950Z,17.33
2023-03-25T08:12:24.473Z,16.63
2023-03-25T08:14:51.940Z,12.48
2023-03-25T08:17:19.227Z,11.15
2023-03-25T08:19:46.606Z,15.20
2023-03-25T08:22:13.974Z,17.02
2023-03-25T08:24:41.590Z,15.73
2023-03-25T08:27:16.197Z,20.23
2023-03-25T08:29:44.767Z,10.30
2023-03-25T08:32:11.997Z,15.35
2023-03-25T08:34:41.910Z,15.38
2023-03-25T08:37:10.027Z,19.25
2023-03-25T08:39:40.064Z,14.32
2023-03-25T08:44:35.634Z,18.95
2023-03-25T08:47:02.982Z,17.08
2023-03-25T08:49:30.483Z,17.85
2023-03-25T08:51:59.198Z,17.98
2023-03-25T08:54:27.300Z,18.63
2023-03-25T08:56:54.985Z,13.77
2023-03-25T08:59:22.295Z,17.35
2023-03-25T09:01:50.074Z,14.20
2023-03-25T09:04:17.382Z,14.68
2023-03-25T09:06:47.936Z,18.63
2023-03-25T09:09:31.960Z,14.10
2023-03-25T09:11:59.923Z,17.90
2023-03-25T09:14:27.333Z,18.85
2023-03-25T09:16:54.576Z,15.32
2023-03-25T09:19:21.892Z,13.05
2023-03-25T09:21:49.249Z,17.15
2023-03-25T09:24:16.546Z,11.57
2023-03-25T09:26:43.867Z,15.55
2023-03-25T09:29:11.168Z,14.93
2023-03-25T09:31:38.570Z,11.05
2023-03-25T09:34:06.470Z,22.05
2023-03-25T09:36:33.804Z,14.20
2023-03-25T09:39:01.344Z,10.55
2023-03-25T09:41:31.386Z,15.85
2023-03-25T09:44:06.953Z,11.63
2023-03-25T09:46:37.760Z,12.63
2023-03-25T09:49:06.045Z,11.05
2023-03-25T09:51:35.991Z,14.50
2023-03-25T09:54:25.982Z,13.10
2023-03-25T09:56:55.415Z,16.08
2023-03-25T09:59:24.112Z,15.15
2023-03-25T10:02:21.978Z,13.07
2023-03-25T10:05:11.316Z,13.68
2023-03-25T10:07:38.465Z,13.57
2023-03-25T10:10:13.559Z,10.50
2023-03-25T10:13:01.879Z,13.93
2023-03-25T10:16:04.581Z,18.02
2023-03-25T10:18:49.355Z,12.02
2023-03-25T10:21:24.473Z,11.60
2023-03-25T10:24:07.067Z,15.57
2023-03-25T10:27:04.222Z,11.23
2023-03-25T10:29:36.646Z,14.55
2023-03-25T10:32:07.705Z,13.48
2023-03-25T10:34:42.897Z,16.50
2023-03-25T10:37:12.485Z,14.80
2023-03-25T10:39:45.276Z,16.10
2023-03-25T10:42:29.298Z,19.95
2023-03-25T10:44:56.733Z,15.73
2023-03-25T10:47:27.214Z,13.02
2023-03-25T10:49:55.394Z,11.20
2023-03-25T10:52:22.906Z,14.55
2023-03-25T10:54:53.080Z,15.30
2023-03-25T10:59:58.202Z,13.57
2023-03-25T11:02:28.157Z,10.60
2023-03-25T11:05:01.852Z,18.55
2023-03-25T11:07:37.584Z,12.15
2023-03-25T11:10:17.465Z,12.20
2023-03-25T11:12:48.498Z,9.07
2023-03-25T11:15:20.246Z,15.30
2023-03-25T11:17:48.839Z,12.70
2023-03-25T11:20:21.731Z,13.73
2023-03-25T11:22:51.953Z,10.57
2023-03-25T11:27:56.542Z,12.30
2023-03-25T11:30:26.081Z,13.75
2023-03-25T11:33:27.209Z,18.13
2023-03-25T11:35:54.556Z,13.07
2023-03-25T11:38:32.418Z,15.40
2023-03-25T11:41:00.108Z,14.05
2023-03-25T11:43:33.640Z,11.68
2023-03-25T11:46:12.797Z,10.98
2023-03-25T11:48:42.062Z,15.32
2023-03-25T11:51:24.860Z,11.38
2023-03-25T11:53:58.071Z,10.38
2023-03-25T11:56:46.670Z,17.15
2023-03-25T11:59:44.810Z,13.82
2023-03-25T12:02:31.850Z,17.33
2023-03-25T12:05:02.884Z,13.60
2023-03-25T12:07:30.442Z,13.50
2023-03-25T12:09:59.846Z,13.93
2023-03-25T12:12:33.162Z,11.98
2023-03-25T12:15:47.411Z,12.88
2023-03-25T12:19:08.627Z,14.13
2023-03-25T12:21:42.687Z,16.75
2023-03-25T12:24:18.754Z,12.50
2023-03-25T12:27:05.035Z,14.75
2023-03-25T12:29:47.539Z,12.00
2023-03-25T12:32:29.678Z,15.07
2023-03-25T12:35:04.000Z,13.15
2023-03-25T12:37:31.352Z,10.02
2023-03-25T12:40:09.879Z,8.45
2023-03-25T12:42:47.482Z,9.70
2023-03-25T12:45:39.866Z,12.80
2023-03-25T12:48:10.562Z,13.20
2023-03-25T12:50:46.911Z,13.35
2023-03-25T12:53:27.916Z,18.50
2023-03-25T12:56:14.370Z,8.73
2023-03-25T12:58:55.971Z,17.10
2023-03-25T13:01:58.148Z,9.23
2023-03-25T13:04:49.206Z,12.63
2023-03-25T13:07:19.533Z,11.90
2023-03-25T13:10:23.798Z,12.98
2023-03-25T13:12:56.431Z,20.55
2023-03-25T13:15:28.074Z,11.70
2023-03-25T13:18:12.314Z,13.65
2023-03-25T13:20:43.318Z,11.60
2023-03-25T13:23:17.776Z,11.00
2023-03-25T13:25:49.585Z,15.60
2023-03-25T13:28:22.984Z,14.50
2023-03-25T13:30:50.722Z,14.00
2023-03-25T13:33:30.560Z,14.88
2023-03-25T13:36:37.981Z,14.60
2023-03-25T13:39:15.970Z,14.85
2023-03-25T13:41:52.314Z,19.45
2023-03-25T13:44:41.528Z,18.83
2023-03-25T13:47:19.665Z,14.47
2023-03-25T13:49:54.156Z,15.80
2023-03-25T13:52:22.118Z,14.70
2023-03-25T13:54:57.065Z,15.25
2023-03-25T13:57:30.172Z,16.48
2023-03-25T14:00:10.278Z,16.05
2023-03-25T14:03:11.085Z,15.68
2023-03-25T14:05:51.064Z,12.63
2023-03-25T14:08:36.841Z,15.38
2023-03-25T14:11:17.553Z,16.00
2023-03-25T14:13:55.831Z,17.20
2023-03-25T14:16:31.532Z,13.38
2023-03-25T14:19:03.038Z,13.90
2023-03-25T14:21:34.598Z,12.32
2023-03-25T14:24:18.861Z,18.20
2023-03-25T14:26:49.666Z,15.95
2023-03-25T14:29:35.686Z,14.15
2023-03-25T14:32:32.330Z,10.90
2023-03-25T14:35:34.212Z,12.82
2023-03-25T14:38:08.343Z,13.60
2023-03-25T14:40:47.406Z,13.80
2023-03-25T14:43:34.514Z,11.00
2023-03-25T14:46:06.392Z,12.75
2023-03-25T14:48:37.991Z,11.10
2023-03-25T14:51:10.893Z,13.88
2023-03-25T14:53:38.650Z,13.70
2023-03-25T14:56:11.726Z,12.50
2023-03-25T14:58:39.455Z,12.30
2023-03-25T15:01:11.506Z,12.68
2023-03-25T15:03:42.687Z,11.73
2023-03-25T15:06:17.021Z,11.13
2023-03-25T15:08:56.572Z,14.80
2023-03-25T15:11:33.473Z,12.02
2023-03-25T15:14:03.949Z,14.35
2023-03-25T15:16:47.657Z,11.70
2023-03-25T15:19:16.767Z,11.95
2023-03-25T15:22:01.429Z,10.60
2023-03-25T15:24:33.429Z,14.95
2023-03-25T15:27:29.627Z,12.65
2023-03-25T15:30:31.221Z,14.30
2023-03-25T15:33:31.023Z,8.50
2023-03-25T15:36:36.342Z,12.90
2023-03-25T15:39:31.623Z,14.70
2023-03-25T15:42:13.179Z,11.18
2023-03-25T15:45:09.774Z,10.85
2023-03-25T15:48:02.811Z,13.40
2023-03-25T15:51:06.070Z,13.48
2023-03-25T15:53:49.453Z,13.70
2023-03-25T15:56:22.042Z,19.08
2023-03-25T15:59:07.073Z,11.10
2023-03-25T16:01:36.112Z,11.45
2023-03-25T16:04:11.866Z,13.77
2023-03-25T16:06:46.954Z,11.05
2023-03-25T16:09:19.360Z,15.07
2023-03-25T16:11:50.707Z,14.23
2023-03-25T16:14:21.905Z,12.95
2023-03-25T16:16:57.116Z,13.18
2023-03-25T16:19:28.056Z,15.73
2023-03-25T16:21:55.491Z,11.43
2023-03-25T16:24:26.963Z,9.13
2023-03-25T16:26:54.435Z,14.60
2023-03-25T16:29:23.836Z,11.27
2023-03-25T16:31:57.825Z,13.02
2023-03-25T16:34:27.649Z,14.55
2023-03-25T16:36:57.354Z,12.55
2023-03-25T16:39:27.160Z,15.52
2023-03-25T16:42:07.861Z,12.15
2023-03-25T16:44:35.637Z,13.77
2023-03-25T16:47:03.444Z,13.30
2023-03-25T16:49:35.021Z,16.17
2023-03-25T16:52:09.418Z,13.43
2023-03-25T16:54:43.908Z,15.63
2023-03-25T16:57:17.458Z,16.88
2023-03-25T16:59:47.667Z,17.77
2023-03-25T17:04:58.186Z,13.57
2023-03-25T17:07:27.932Z,12.82
2023-03-25T17:09:58.300Z,15.25
2023-03-25T17:12:27.918Z,14.82
2023-03-25T17:15:07.159Z,18.05
2023-03-25T17:17:51.457Z,12.32
2023-03-25T17:20:23.269Z,18.83
2023-03-25T17:23:08.255Z,12.80
2023-03-25T17:25:48.803Z,16.63
2023-03-25T17:28:40.500Z,21.25
2023-03-25T17:31:28.108Z,17.70
2023-03-25T17:34:20.057Z,13.40
2023-03-25T17:36:48.880Z,19.23
2023-03-25T17:39:30.605Z,20.70
2023-03-25T17:42:05.972Z,19.15
2023-03-25T17:44:39.868Z,18.83
2023-03-25T17:47:10.583Z,20.30
2023-03-25T17:49:37.890Z,22.25
2023-03-25T17:52:05.286Z,14.98
2023-03-25T17:54:32.678Z,18.58
2023-03-25T17:57:00.065Z,18.52
2023-03-25T17:59:27.728Z,17.38
2023-03-25T18:01:55.153Z,20.95
2023-03-25T18:04:22.553Z,19.98
2023-03-25T18:06:50.139Z,17.73
2023-03-25T18:09:20.552Z,17.27
2023-03-25T18:11:50.785Z,19.63
2023-03-25T18:14:18.646Z,16.38
2023-03-25T18:16:46.325Z,21.35
2023-03-25T18:19:17.445Z,17.50
2023-03-25T18:21:45.535Z,15.85
2023-03-25T18:24:13.805Z,23.02
2023-03-25T18:26:43.536Z,21.02
2023-03-25T18:29:16.945Z,15.18
2023-03-25T18:31:44.316Z,22.42
2023-03-25T18:34:13.195Z,21.75
2023-03-25T18:36:41.666Z,22.95
2023-03-25T18:39:17.340Z,22.17
2023-03-25T18:41:44.979Z,23.10
2023-03-25T18:44:13.135Z,19.85
2023-03-25T18:46:40.979Z,18.75
2023-03-25T18:49:16.940Z,19.75
2023-03-25T18:51:44.829Z,21.48
2023-03-25T18:54:12.687Z,20.10
2023-03-25T18:56:43.386Z,20.02
2023-03-25T18:59:12.106Z,19.95
2023-03-25T19:01:39.444Z,20.30
2023-03-25T19:04:06.874Z,20.50
2023-03-25T19:06:34.330Z,24.70
2023-03-25T19:09:01.855Z,18.70
2023-03-25T19:11:30.648Z,19.10
2023-03-25T19:13:58.035Z,15.95
2023-03-25T19:16:25.701Z,19.35
2023-03-25T19:18:53.936Z,26.88
2023-03-25T19:21:22.425Z,27.50
2023-03-25T19:23:49.801Z,28.02
2023-03-25T19:26:17.136Z,22.17
2023-03-25T19:28:44.509Z,20.88
2023-03-25T19:31:15.688Z,20.77
2023-03-25T19:33:43.291Z,25.02
2023-03-25T19:36:15.981Z,26.10
2023-03-25T19:38:43.296Z,25.63
2023-03-25T19:41:12.592Z,23.88
2023-03-25T19:43:40.077Z,24.33
2023-03-25T19:46:07.477Z,25.30
2023-03-25T19:48:35.526Z,27.40
2023-03-25T19:51:03.254Z,22.58
2023-03-25T19:53:30.552Z,23.95
2023-03-25T19:56:05.689Z,24.25
2023-03-25T19:58:34.846Z,20.45
2023-03-25T20:01:02.311Z,28.42
2023-03-25T20:03:32.256Z,24.92
2023-03-25T20:06:02.284Z,22.27
2023-03-25T20:08:30.545Z,27.17
2023-03-25T20:10:58.190Z,24.98
2023-03-25T20:13:25.835Z,25.55
2023-03-25T20:15:53.589Z,25.60
2023-03-25T20:18:21.365Z,26.27
2023-03-25T20:20:48.725Z,21.35
2023-03-25T20:23:16.135Z,25.38
2023-03-25T20:25:43.745Z,21.92
2023-03-25T20:28:11.538Z,27.17
2023-03-25T20:30:39.157Z,24.45
2023-03-25T20:33:06.535Z,24.48
2023-03-25T20:35:35.565Z,26.40
2023-03-25T20:38:03.530Z,23.33
2023-03-25T20:40:43.639Z,27.55
2023-03-25T20:43:16.313Z,28.27
2023-03-25T20:45:43.843Z,23.75
2023-03-25T20:48:11.470Z,23.67
2023-03-25T20:50:38.995Z,25.92
2023-03-25T20:53:06.766Z,26.75
2023-03-25T20:55:34.054Z,22.85
2023-03-25T20:58:01.651Z,19.83
2023-03-25T21:00:29.607Z,25.08
2023-03-25T21:02:57.779Z,28.55
2023-03-25T21:05:27.143Z,33.88
2023-03-25T21:07:54.538Z,26.73
2023-03-25T21:10:21.922Z,22.60
2023-03-25T21:12:49.236Z,21.90
2023-03-25T21:15:16.542Z,27.70
2023-03-25T21:17:44.238Z,24.60
2023-03-25T21:20:12.214Z,28.60
2023-03-25T21:22:43.140Z,23.27
2023-03-25T21:25:11.669Z,29.63
2023-03-25T21:27:40.040Z,26.30
2023-03-25T21:30:09.804Z,20.13
2023-03-25T21:32:40.528Z,32.88
2023-03-25T21:35:09.333Z,25.52
2023-03-25T21:37:40.348Z,29.52
2023-03-25T21:40:11.206Z,28.98
2023-03-25T21:42:41.441Z,24.77
2023-03-25T21:45:11.514Z,25.30
2023-03-25T21:47:40.066Z,22.92
2023-03-25T21:50:10.453Z,19.60
2023-03-25T21:52:43.476Z,22.52
2023-03-25T21:55:11.327Z,27.88
2023-03-25T21:57:39.996Z,26.63
2023-03-25T22:00:08.617Z,24.13
2023-03-25T22:02:43.640Z,23.38
2023-03-25T22:05:12.911Z,25.35
2023-03-25T22:07:40.775Z,20.88
2023-03-25T22:10:09.900Z,22.45
2023-03-25T22:12:37.176Z,23.83
2023-03-25T22:15:04.695Z,22.52
2023-03-25T22:17:32.048Z,18.60
2023-03-25T22:19:59.332Z,18.25
2023-03-25T22:22:26.639Z,22.85
2023-03-25T22:24:53.991Z,20.05
2023-03-25T22:27:21.414Z,20.40
2023-03-25T22:29:48.616Z,20.30
2023-03-25T22:32:16.278Z,22.10
2023-03-25T22:34:43.576Z,29.33
2023-03-25T22:37:10.891Z,20.83
2023-03-25T22:39:39.086Z,22.85
2023-03-25T22:42:06.451Z,22.10
2023-03-25T22:44:33.779Z,17.55
2023-03-25T22:47:01.103Z,25.75
2023-03-25T22:49:28.580Z,19.55
2023-03-25T22:51:56.017Z,18.70
2023-03-25T22:54:23.671Z,19.92
2023-03-25T22:56:51.153Z,15.25
2023-03-25T22:59:18.560Z,12.00
2023-03-25T23:01:45.994Z,14.85
2023-03-25T23:04:13.721Z,12.40
2023-03-25T23:06:41.883Z,12.60
2023-03-25T23:09:10.408Z,15.77
2023-03-25T23:11:38.260Z,9.80
2023-03-25T23:14:13.068Z,13.57
2023-03-25T23:16:41.806Z,8.45
2023-03-25T23:19:10.177Z,12.20
2023-03-25T23:21:38.405Z,12.38
2023-03-25T23:24:06.039Z,10.27
2023-03-25T23:26:39.320Z,12.02
2023-03-25T23:29:09.578Z,9.25
2023-03-25T23:31:38.395Z,6.85
2023-03-25T23:34:08.055Z,9.82
2023-03-25T23:36:36.860Z,7.25
2023-03-25T23:39:07.390Z,8.77
2023-03-25T23:41:35.456Z,8.85
2023-03-25T23:44:03.459Z,13.77
2023-03-25T23:46:31.273Z,10.35
2023-03-25T23:49:05.699Z,8.23
2023-03-25T23:51:36.409Z,7.45
2023-03-25T23:54:05.738Z,9.60
2023-03-25T23:56:33.426Z,8.47
2023-03-25T23:59:01.518Z,9.57
